createdAt,value
2023-01-11T00:01:41.563Z,82.38
2023-01-11T00:04:09.446Z,82.92
2023-01-11T00:06:37.738Z,82.69
2023-01-11T00:09:05.577Z,82.62
2023-01-11T00:11:34.850Z,82.75
2023-01-11T00:14:02.684Z,83.32
2023-01-11T00:16:31.028Z,83.93
2023-01-11T00:18:58.948Z,83.82
2023-01-11T00:21:27.195Z,84.08
2023-01-11T00:23:55.157Z,84.92
2023-01-11T00:26:23.255Z,84.68
2023-01-11T00:28:53.397Z,85.22
2023-01-11T00:31:21.732Z,85.64
2023-01-11T00:33:49.739Z,84.89
2023-01-11T00:36:18.005Z,84.67
2023-01-11T00:38:47.027Z,84.38
2023-01-11T00:41:34.789Z,84.34
2023-01-11T00:44:22.280Z,84.73
2023-01-11T00:47:07.478Z,84.84
2023-01-11T00:49:36.114Z,83.77
2023-01-11T00:52:08.693Z,84.90
2023-01-11T00:54:36.753Z,85.21
2023-01-11T00:57:06.413Z,84.45
2023-01-11T00:59:35.560Z,84.31
2023-01-11T01:02:03.548Z,84.56
2023-01-11T01:04:31.830Z,83.79
2023-01-11T01:07:00.249Z,83.96
2023-01-11T01:09:31.678Z,84.52
2023-01-11T01:12:00.392Z,84.80
2023-01-11T01:14:28.820Z,83.22
2023-01-11T01:17:00.804Z,84.00
2023-01-11T01:19:29.450Z,83.77
2023-01-11T01:21:58.328Z,84.32
2023-01-11T01:24:28.291Z,83.96
2023-01-11T01:26:56.528Z,83.95
2023-01-11T01:29:24.616Z,84.79
2023-01-11T01:31:52.859Z,84.73
2023-01-11T01:34:22.191Z,84.90
2023-01-11T01:36:50.548Z,85.23
2023-01-11T01:39:18.504Z,84.70
2023-01-11T01:41:46.673Z,85.00
2023-01-11T01:44:53.916Z,85.24
2023-01-11T01:47:25.333Z,85.09
2023-01-11T01:49:55.986Z,85.06
2023-01-11T01:52:28.933Z,85.54
2023-01-11T01:55:01.483Z,85.57
2023-01-11T01:57:33.144Z,85.77
2023-01-11T02:00:05.005Z,85.94
2023-01-11T02:02:33.107Z,86.58
2023-01-11T02:05:02.366Z,86.14
2023-01-11T02:07:34.017Z,85.35
2023-01-11T02:10:08.243Z,85.81
2023-01-11T02:12:40.319Z,84.89
2023-01-11T02:15:10.795Z,85.57
2023-01-11T02:17:38.908Z,85.54
2023-01-11T02:20:22.627Z,85.88
2023-01-11T02:23:22.117Z,85.04
2023-01-11T02:26:41.569Z,86.19
2023-01-11T02:29:18.722Z,86.17
2023-01-11T02:31:53.037Z,86.44
2023-01-11T02:34:31.666Z,86.54
2023-01-11T02:37:09.685Z,87.98
2023-01-11T02:39:46.960Z,88.59
2023-01-11T02:42:40.200Z,88.23
2023-01-11T02:45:19.555Z,89.31
2023-01-11T02:47:52.360Z,90.37
2023-01-11T02:50:30.282Z,91.13
2023-01-11T02:53:04.624Z,91.61
2023-01-11T02:55:38.067Z,92.50
2023-01-11T02:58:11.383Z,93.09
2023-01-11T03:00:42.196Z,93.51
2023-01-11T03:03:15.672Z,93.99
2023-01-11T03:05:50.958Z,94.03
2023-01-11T03:08:33.037Z,94.49
2023-01-11T03:11:06.862Z,94.73
2023-01-11T03:13:50.993Z,93.18
2023-01-11T03:16:26.431Z,93.42
2023-01-11T03:19:05.985Z,93.88
2023-01-11T03:21:58.500Z,93.75
2023-01-11T03:24:35.312Z,93.31
2023-01-11T03:27:17.643Z,93.56
2023-01-11T03:29:51.557Z,92.45
2023-01-11T03:32:28.102Z,93.07
2023-01-11T03:35:06.755Z,93.73
2023-01-11T03:37:40.329Z,94.11
2023-01-11T03:40:14.991Z,94.12
2023-01-11T03:43:01.684Z,93.82
2023-01-11T03:45:34.522Z,93.70
2023-01-11T03:48:08.054Z,93.46
2023-01-11T03:50:37.401Z,94.27
2023-01-11T03:53:08.276Z,93.55
2023-01-11T03:55:41.867Z,93.49
2023-01-11T03:58:11.323Z,93.69
2023-01-11T04:00:39.604Z,93.74
2023-01-11T04:03:13.103Z,93.95
2023-01-11T04:05:44.227Z,93.20
2023-01-11T04:08:13.016Z,93.39
2023-01-11T04:10:41.592Z,93.24
2023-01-11T04:13:09.915Z,93.12
2023-01-11T04:15:37.812Z,93.42
2023-01-11T04:18:06.571Z,92.54
2023-01-11T04:20:38.416Z,92.84
2023-01-11T04:23:08.213Z,92.30
2023-01-11T04:25:37.632Z,92.52
2023-01-11T04:28:06.157Z,93.11
2023-01-11T04:30:36.133Z,92.74
2023-01-11T04:33:04.420Z,92.46
2023-01-11T04:35:32.611Z,93.24
2023-01-11T04:38:02.768Z,93.06
2023-01-11T04:40:31.254Z,93.33
2023-01-11T04:43:02.735Z,93.75
2023-01-11T04:45:32.710Z,94.23
2023-01-11T04:48:01.356Z,94.06
2023-01-11T04:50:29.890Z,94.67
2023-01-11T04:53:00.597Z,93.64
2023-01-11T04:55:30.172Z,93.71
2023-01-11T04:57:59.140Z,93.74
2023-01-11T05:00:27.916Z,94.26
2023-01-11T05:02:56.834Z,93.59
2023-01-11T05:05:25.218Z,94.48
2023-01-11T05:07:55.030Z,94.20
2023-01-11T05:10:23.663Z,94.07
2023-01-11T05:12:53.673Z,93.62
2023-01-11T05:15:22.105Z,94.10
2023-01-11T05:17:50.947Z,93.78
2023-01-11T05:20:19.285Z,93.71
2023-01-11T05:22:47.945Z,94.32
2023-01-11T05:25:16.186Z,94.00
2023-01-11T05:27:44.803Z,93.67
2023-01-11T05:30:15.637Z,93.73
2023-01-11T05:32:44.297Z,93.53
2023-01-11T05:35:12.656Z,93.67
2023-01-11T05:37:41.352Z,94.19
2023-01-11T05:40:11.324Z,93.47
2023-01-11T05:42:39.520Z,93.73
2023-01-11T05:45:26.315Z,93.14
2023-01-11T05:47:56.689Z,93.83
2023-01-11T05:50:24.973Z,93.67
2023-01-11T05:52:53.962Z,94.31
2023-01-11T05:55:22.322Z,94.61
2023-01-11T05:57:51.700Z,94.75
2023-01-11T06:00:20.840Z,94.91
2023-01-11T06:02:50.530Z,94.98
2023-01-11T06:05:20.194Z,95.06
2023-01-11T06:07:48.589Z,94.29
2023-01-11T06:10:17.740Z,95.40
2023-01-11T06:12:46.053Z,95.45
2023-01-11T06:15:14.328Z,96.31
2023-01-11T06:17:43.337Z,95.92
2023-01-11T06:20:13.165Z,95.71
2023-01-11T06:22:43.456Z,95.40
2023-01-11T06:25:12.125Z,95.92
2023-01-11T06:27:40.890Z,95.74
2023-01-11T06:30:11.065Z,94.87
2023-01-11T06:32:40.023Z,94.76
2023-01-11T06:35:08.856Z,94.41
2023-01-11T06:37:37.629Z,93.87
2023-01-11T06:40:08.391Z,95.17
2023-01-11T06:42:37.962Z,94.54
2023-01-11T06:45:07.987Z,95.04
2023-01-11T06:47:36.740Z,95.28
2023-01-11T06:50:05.519Z,95.04
2023-01-11T06:52:33.970Z,95.83
2023-01-11T06:55:03.103Z,95.40
2023-01-11T06:57:34.186Z,95.98
2023-01-11T07:00:03.711Z,95.49
2023-01-11T07:02:32.893Z,95.84
2023-01-11T07:05:01.239Z,95.95
2023-01-11T07:07:30.038Z,95.84
2023-01-11T07:09:58.108Z,95.73
2023-01-11T07:12:27.145Z,95.82
2023-01-11T07:14:56.825Z,95.78
2023-01-11T07:17:25.604Z,96.10
2023-01-11T07:19:54.108Z,96.18
2023-01-11T07:22:23.184Z,95.84
2023-01-11T07:24:51.990Z,95.77
2023-01-11T07:27:21.517Z,96.19
2023-01-11T07:29:50.233Z,95.99
2023-01-11T07:32:20.717Z,95.23
2023-01-11T07:34:49.720Z,96.12
2023-01-11T07:37:29.008Z,96.03
2023-01-11T07:39:58.027Z,95.77
2023-01-11T07:42:44.335Z,95.58
2023-01-11T07:45:16.125Z,95.42
2023-01-11T07:47:46.302Z,95.81
2023-01-11T07:50:15.003Z,95.69
2023-01-11T07:52:48.655Z,95.36
2023-01-11T07:55:16.996Z,95.47
2023-01-11T07:57:45.774Z,95.83
2023-01-11T08:00:15.496Z,96.02
2023-01-11T08:02:45.638Z,95.08
2023-01-11T08:05:14.329Z,95.15
2023-01-11T08:08:04.687Z,95.22
2023-01-11T08:10:33.231Z,95.60
2023-01-11T08:13:20.098Z,94.69
2023-01-11T08:15:48.830Z,95.36
2023-01-11T08:18:19.908Z,95.83
2023-01-11T08:20:49.331Z,95.44
2023-01-11T08:23:17.971Z,95.97
2023-01-11T08:25:46.447Z,95.56
2023-01-11T08:28:15.980Z,95.09
2023-01-11T08:30:44.944Z,94.94
2023-01-11T08:33:14.285Z,94.94
2023-01-11T08:35:44.089Z,95.02
2023-01-11T08:38:13.569Z,94.51
2023-01-11T08:40:42.891Z,96.29
2023-01-11T08:43:11.576Z,96.64
2023-01-11T08:45:40.992Z,95.83
2023-01-11T08:48:09.793Z,95.86
2023-01-11T08:50:38.749Z,96.45
2023-01-11T08:53:09.575Z,96.37
2023-01-11T08:55:42.218Z,96.78
2023-01-11T08:58:10.539Z,96.26
2023-01-11T09:00:39.482Z,95.81
2023-01-11T09:03:08.429Z,96.76
2023-01-11T09:05:37.409Z,95.85
2023-01-11T09:08:08.087Z,96.93
2023-01-11T09:10:36.982Z,97.21
2023-01-11T09:13:05.648Z,97.32
2023-01-11T09:15:34.669Z,97.12
2023-01-11T09:18:05.384Z,96.59
2023-01-11T09:20:34.319Z,96.94
2023-01-11T09:23:02.831Z,97.16
2023-01-11T09:25:33.383Z,96.96
2023-01-11T09:28:02.065Z,96.92
2023-01-11T09:30:31.369Z,97.18
2023-01-11T09:32:59.818Z,96.45
2023-01-11T09:35:28.725Z,97.01
2023-01-11T09:37:58.531Z,95.71
2023-01-11T09:40:35.955Z,96.44
2023-01-11T09:43:07.325Z,95.81
2023-01-11T09:45:37.336Z,96.69
2023-01-11T09:48:15.552Z,96.63
2023-01-11T09:50:47.925Z,96.60
2023-01-11T09:53:22.634Z,96.28
2023-01-11T09:55:54.311Z,96.12
2023-01-11T09:58:56.579Z,96.83
2023-01-11T10:01:34.720Z,96.21
2023-01-11T10:04:33.371Z,96.25
2023-01-11T10:07:23.639Z,95.71
2023-01-11T10:18:33.919Z,96.18
2023-01-11T10:21:58.321Z,96.87
2023-01-11T10:24:31.313Z,96.38
2023-01-11T10:27:06.417Z,96.43
2023-01-11T10:29:59.643Z,96.90
2023-01-11T10:32:46.423Z,96.49
2023-01-11T10:35:31.935Z,96.67
2023-01-11T10:38:25.705Z,97.24
2023-01-11T10:41:06.952Z,96.98
2023-01-11T10:43:38.926Z,96.88
2023-01-11T10:46:14.392Z,96.86
2023-01-11T10:48:44.495Z,96.82
2023-01-11T10:51:28.767Z,96.95
2023-01-11T10:57:03.600Z,97.13
2023-01-11T10:59:52.656Z,97.58
2023-01-11T11:02:39.171Z,97.04
2023-01-11T11:05:22.785Z,97.62
2023-01-11T11:07:57.605Z,97.16
2023-01-11T11:10:33.491Z,96.25
2023-01-11T11:13:12.930Z,97.00
2023-01-11T11:15:48.389Z,96.46
2023-01-11T11:18:18.173Z,96.63
2023-01-11T11:20:47.019Z,96.62
2023-01-11T11:23:18.724Z,97.48
2023-01-11T11:25:51.433Z,96.99
2023-01-11T11:28:29.504Z,97.40
2023-01-11T11:31:00.563Z,96.94
2023-01-11T11:33:38.049Z,96.38
2023-01-11T11:36:09.078Z,97.15
2023-01-11T11:38:38.782Z,97.04
2023-01-11T11:41:09.830Z,97.23
2023-01-11T11:43:39.113Z,96.79
2023-01-11T11:46:23.540Z,97.58
2023-01-11T11:49:13.548Z,97.62
2023-01-11T11:51:45.012Z,98.98
2023-01-11T11:54:24.253Z,99.31
2023-01-11T11:56:54.095Z,98.58
2023-01-11T11:59:30.269Z,98.04
2023-01-11T12:02:03.636Z,97.56
2023-01-11T12:04:47.594Z,96.87
2023-01-11T12:07:21.651Z,96.95
2023-01-11T12:09:59.489Z,96.82
2023-01-11T12:12:30.499Z,96.68
2023-01-11T12:15:26.814Z,97.10
2023-01-11T12:17:58.909Z,96.86
2023-01-11T12:20:34.871Z,96.49
2023-01-11T12:23:18.076Z,96.40
2023-01-11T12:25:59.294Z,95.79
2023-01-11T12:28:42.267Z,96.59
2023-01-11T12:31:18.411Z,95.84
2023-01-11T12:33:54.843Z,95.58
2023-01-11T12:36:36.378Z,95.47
2023-01-11T12:39:17.257Z,95.28
2023-01-11T12:41:59.749Z,95.29
2023-01-11T12:44:44.851Z,95.96
2023-01-11T12:47:46.881Z,95.18
2023-01-11T12:50:22.191Z,94.71
2023-01-11T12:53:17.264Z,95.09
2023-01-11T12:55:58.490Z,93.94
2023-01-11T12:58:35.949Z,94.51
2023-01-11T13:01:22.444Z,93.78
2023-01-11T13:04:39.564Z,93.99
2023-01-11T13:07:16.232Z,93.42
2023-01-11T13:10:01.719Z,93.67
2023-01-11T13:12:37.639Z,94.22
2023-01-11T13:15:18.085Z,94.78
2023-01-11T13:17:53.037Z,94.84
2023-01-11T13:20:34.192Z,93.76
2023-01-11T13:23:15.418Z,93.27
2023-01-11T13:25:49.038Z,93.39
2023-01-11T13:28:25.784Z,93.06
2023-01-11T13:30:54.871Z,92.86
2023-01-11T13:33:25.730Z,93.44
2023-01-11T13:35:59.424Z,93.55
2023-01-11T13:38:38.270Z,93.73
2023-01-11T13:41:17.001Z,93.18
2023-01-11T13:43:50.372Z,93.65
2023-01-11T13:46:26.097Z,94.49
2023-01-11T13:49:02.568Z,93.62
2023-01-11T13:51:39.558Z,93.02
2023-01-11T13:54:16.882Z,93.50
2023-01-11T13:56:55.756Z,93.06
2023-01-11T13:59:29.740Z,94.38
2023-01-11T14:02:04.021Z,94.61
2023-01-11T14:04:48.161Z,94.51
2023-01-11T14:07:28.821Z,94.03
2023-01-11T14:10:31.382Z,93.89
2023-01-11T14:13:56.321Z,93.92
2023-01-11T14:16:35.652Z,93.99
2023-01-11T14:19:13.459Z,94.50
2023-01-11T14:21:52.166Z,94.49
2023-01-11T14:24:23.480Z,93.80
2023-01-11T14:27:08.384Z,93.62
2023-01-11T14:30:08.413Z,93.91
2023-01-11T14:33:02.851Z,92.85
2023-01-11T14:35:59.786Z,93.59
2023-01-11T14:39:06.479Z,93.08
2023-01-11T14:42:32.058Z,92.99
2023-01-11T14:45:30.855Z,93.26
2023-01-11T14:48:19.713Z,93.16
2023-01-11T14:56:04.803Z,94.24
2023-01-11T14:58:34.354Z,94.68
2023-01-11T15:01:12.221Z,95.13
2023-01-11T15:03:49.093Z,95.05
2023-01-11T15:06:20.610Z,94.28
2023-01-11T15:08:52.261Z,93.11
2023-01-11T15:11:41.825Z,94.36
2023-01-11T15:14:26.785Z,95.00
2023-01-11T15:42:02.016Z,93.50
2023-01-11T15:44:58.833Z,94.29
2023-01-11T15:47:49.634Z,94.55
